sensor_id;sensor_type;location;lat;lon;timestamp;pressure;altitude;pressure_sealevel;temperature;humidity
19508;BME280;40157;42.566;27.526;2023-05-02T00:01:25;101573.25;;;12.65;51.02
19508;BME280;40157;42.566;27.526;2023-05-02T00:03:26;101591.00;;;12.75;51.18
19508;BME280;40157;42.566;27.526;2023-05-02T00:05:26;101586.44;;;12.66;51.49
19508;BME280;40157;42.566;27.526;2023-05-02T00:07:27;101587.38;;;12.70;51.61
19508;BME280;40157;42.566;27.526;2023-05-02T00:09:28;101608.69;;;12.81;51.67
19508;BME280;40157;42.566;27.526;2023-05-02T00:11:28;101610.38;;;12.78;51.52
19508;BME280;40157;42.566;27.526;2023-05-02T00:13:29;101584.53;;;12.59;51.68
19508;BME280;40157;42.566;27.526;2023-05-02T00:15:29;101608.63;;;12.77;52.48
19508;BME280;40157;42.566;27.526;2023-05-02T00:17:30;101584.66;;;12.65;53.05
19508;BME280;40157;42.566;27.526;2023-05-02T00:19:30;101591.88;;;12.74;53.36
19508;BME280;40157;42.566;27.526;2023-05-02T00:21:31;101611.25;;;12.77;52.89
19508;BME280;40157;42.566;27.526;2023-05-02T00:23:32;101590.00;;;12.68;52.65
19508;BME280;40157;42.566;27.526;2023-05-02T00:25:32;101547.19;;;12.34;52.89
19508;BME280;40157;42.566;27.526;2023-05-02T00:27:32;101587.22;;;12.62;52.90
19508;BME280;40157;42.566;27.526;2023-05-02T00:29:33;101604.16;;;12.75;52.99
19508;BME280;40157;42.566;27.526;2023-05-02T00:31:33;101527.41;;;12.14;53.14
19508;BME280;40157;42.566;27.526;2023-05-02T00:33:34;101585.91;;;12.42;53.38
19508;BME280;40157;42.566;27.526;2023-05-02T00:35:35;101591.22;;;12.45;53.54
19508;BME280;40157;42.566;27.526;2023-05-02T00:37:35;101621.50;;;12.65;53.32
19508;BME280;40157;42.566;27.526;2023-05-02T00:39:36;101578.84;;;12.40;53.33
19508;BME280;40157;42.566;27.526;2023-05-02T00:41:36;101588.59;;;12.45;53.36
19508;BME280;40157;42.566;27.526;2023-05-02T00:43:37;101618.09;;;12.69;53.44
19508;BME280;40157;42.566;27.526;2023-05-02T00:45:41;101540.97;;;12.31;53.59
19508;BME280;40157;42.566;27.526;2023-05-02T00:47:42;101580.00;;;12.53;53.83
19508;BME280;40157;42.566;27.526;2023-05-02T00:49:43;101568.53;;;12.50;53.75
19508;BME280;40157;42.566;27.526;2023-05-02T00:51:44;101610.34;;;12.77;53.93
19508;BME280;40157;42.566;27.526;2023-05-02T00:53:44;101628.06;;;12.84;54.07
19508;BME280;40157;42.566;27.526;2023-05-02T00:55:45;101621.06;;;12.86;54.22
19508;BME280;40157;42.566;27.526;2023-05-02T00:57:46;101630.06;;;12.96;54.13
19508;BME280;40157;42.566;27.526;2023-05-02T00:59:47;101608.78;;;12.87;54.64
19508;BME280;40157;42.566;27.526;2023-05-02T01:08:51;101620.38;;;12.95;55.39
19508;BME280;40157;42.566;27.526;2023-05-02T01:11:16;101617.78;;;12.96;56.17
19508;BME280;40157;42.566;27.526;2023-05-02T01:13:28;101634.50;;;13.00;56.61
19508;BME280;40157;42.566;27.526;2023-05-02T01:15:31;101616.69;;;12.87;56.48
19508;BME280;40157;42.566;27.526;2023-05-02T01:17:33;101620.38;;;12.95;56.50
19508;BME280;40157;42.566;27.526;2023-05-02T01:19:37;101586.50;;;12.69;56.80
19508;BME280;40157;42.566;27.526;2023-05-02T01:21:39;101630.00;;;12.93;57.19
19508;BME280;40157;42.566;27.526;2023-05-02T01:24:01;101631.72;;;12.91;58.11
19508;BME280;40157;42.566;27.526;2023-05-02T01:26:31;101632.38;;;12.81;56.91
19508;BME280;40157;42.566;27.526;2023-05-02T01:28:59;101625.28;;;12.78;55.99
19508;BME280;40157;42.566;27.526;2023-05-02T01:31:03;101613.78;;;12.73;56.32
19508;BME280;40157;42.566;27.526;2023-05-02T01:33:05;101625.47;;;12.86;56.67
19508;BME280;40157;42.566;27.526;2023-05-02T01:35:08;101614.94;;;12.86;56.76
19508;BME280;40157;42.566;27.526;2023-05-02T01:37:10;101605.91;;;12.74;56.51
19508;BME280;40157;42.566;27.526;2023-05-02T01:39:14;101625.47;;;12.86;57.02
19508;BME280;40157;42.566;27.526;2023-05-02T01:41:18;101605.91;;;12.74;59.51
19508;BME280;40157;42.566;27.526;2023-05-02T01:43:20;101621.88;;;12.84;61.52
19508;BME280;40157;42.566;27.526;2023-05-02T01:45:22;101608.63;;;12.77;62.54
19508;BME280;40157;42.566;27.526;2023-05-02T01:47:24;101608.59;;;12.76;63.56
19508;BME280;40157;42.566;27.526;2023-05-02T01:49:25;101575.59;;;12.51;64.72
19508;BME280;40157;42.566;27.526;2023-05-02T01:51:29;101603.13;;;12.68;65.22
19508;BME280;40157;42.566;27.526;2023-05-02T01:53:33;101618.25;;;12.78;65.34
19508;BME280;40157;42.566;27.526;2023-05-02T01:55:35;101612.91;;;12.72;65.41
19508;BME280;40157;42.566;27.526;2023-05-02T01:57:39;101618.97;;;12.70;65.52
19508;BME280;40157;42.566;27.526;2023-05-02T01:59:42;101620.81;;;12.74;65.31
19508;BME280;40157;42.566;27.526;2023-05-02T02:01:43;101614.66;;;12.73;64.79
19508;BME280;40157;42.566;27.526;2023-05-02T02:03:45;101589.81;;;12.59;64.16
19508;BME280;40157;42.566;27.526;2023-05-02T02:05:47;101613.66;;;12.68;63.35
19508;BME280;40157;42.566;27.526;2023-05-02T02:07:48;101618.88;;;12.67;62.59
19508;BME280;40157;42.566;27.526;2023-05-02T02:09:49;101585.13;;;12.47;62.24
19508;BME280;40157;42.566;27.526;2023-05-02T02:11:58;101607.16;;;12.51;62.88
19508;BME280;40157;42.566;27.526;2023-05-02T02:14:06;101616.03;;;12.56;62.98
19508;BME280;40157;42.566;27.526;2023-05-02T02:16:11;101584.84;;;12.33;62.87
19508;BME280;40157;42.566;27.526;2023-05-02T02:18:19;101624.88;;;12.59;63.38
19508;BME280;40157;42.566;27.526;2023-05-02T02:20:20;101614.09;;;12.49;63.28
19508;BME280;40157;42.566;27.526;2023-05-02T02:22:23;101623.09;;;12.58;62.99
19508;BME280;40157;42.566;27.526;2023-05-02T02:24:26;101617.69;;;12.51;62.53
19508;BME280;40157;42.566;27.526;2023-05-02T02:26:27;101592.00;;;12.40;62.27
19508;BME280;40157;42.566;27.526;2023-05-02T02:28:27;101602.44;;;12.36;62.14
19508;BME280;40157;42.566;27.526;2023-05-02T02:30:28;101605.09;;;12.37;62.22
19508;BME280;40157;42.566;27.526;2023-05-02T02:32:28;101627.94;;;12.40;62.18
19508;BME280;40157;42.566;27.526;2023-05-02T02:34:29;101626.00;;;12.31;62.44
19508;BME280;40157;42.566;27.526;2023-05-02T02:36:34;101633.84;;;12.30;62.78
19508;BME280;40157;42.566;27.526;2023-05-02T02:38:44;101610.91;;;12.23;62.81
19508;BME280;40157;42.566;27.526;2023-05-02T02:49:50;101612.28;;;12.08;62.38
19508;BME280;40157;42.566;27.526;2023-05-02T02:53:02;101627.47;;;12.20;61.78
19508;BME280;40157;42.566;27.526;2023-05-02T02:54:51;101636.28;;;12.22;61.13
19508;BME280;40157;42.566;27.526;2023-05-02T02:59:26;101629.25;;;12.21;59.96
19508;BME280;40157;42.566;27.526;2023-05-02T03:01:30;101583.69;;;11.87;59.22
19508;BME280;40157;42.566;27.526;2023-05-02T03:03:32;101617.59;;;12.10;59.34
19508;BME280;40157;42.566;27.526;2023-05-02T03:05:33;101621.97;;;12.09;59.40
19508;BME280;40157;42.566;27.526;2023-05-02T03:07:34;101649.41;;;12.22;59.15
19508;BME280;40157;42.566;27.526;2023-05-02T03:09:42;101649.41;;;12.22;58.79
19508;BME280;40157;42.566;27.526;2023-05-02T03:11:43;101629.72;;;12.05;58.21
19508;BME280;40157;42.566;27.526;2023-05-02T03:13:45;101646.66;;;12.16;58.05
19508;BME280;40157;42.566;27.526;2023-05-02T03:17:53;101628.81;;;12.02;57.21
19508;BME280;40157;42.566;27.526;2023-05-02T03:19:53;101649.06;;;12.07;56.44
19508;BME280;40157;42.566;27.526;2023-05-02T03:21:54;101647.25;;;12.06;56.68
19508;BME280;40157;42.566;27.526;2023-05-02T03:24:02;101651.69;;;12.07;56.92
19508;BME280;40157;42.566;27.526;2023-05-02T03:26:03;101616.06;;;11.84;56.65
19508;BME280;40157;42.566;27.526;2023-05-02T03:28:04;101667.53;;;12.10;57.01
19508;BME280;40157;42.566;27.526;2023-05-02T03:30:05;101653.06;;;11.92;57.25
19508;BME280;40157;42.566;27.526;2023-05-02T03:32:06;101682.47;;;12.12;57.40
19508;BME280;40157;42.566;27.526;2023-05-02T03:34:06;101668.16;;;11.99;57.59
19508;BME280;40157;42.566;27.526;2023-05-02T03:36:07;101693.81;;;12.10;57.91
19508;BME280;40157;42.566;27.526;2023-05-02T03:38:07;101595.97;;;11.53;58.43
19508;BME280;40157;42.566;27.526;2023-05-02T03:40:08;101578.13;;;11.40;59.29
19508;BME280;40157;42.566;27.526;2023-05-02T03:42:08;101682.03;;;11.95;59.93
19508;BME280;40157;42.566;27.526;2023-05-02T03:44:09;101692.22;;;11.83;61.35
19508;BME280;40157;42.566;27.526;2023-05-02T03:46:09;101687.56;;;11.73;61.76
19508;BME280;40157;42.566;27.526;2023-05-02T03:48:10;101651.97;;;11.52;62.12
19508;BME280;40157;42.566;27.526;2023-05-02T03:50:11;101692.91;;;11.76;62.61
19508;BME280;40157;42.566;27.526;2023-05-02T03:52:12;101696.25;;;11.70;63.42
19508;BME280;40157;42.566;27.526;2023-05-02T03:54:12;101681.00;;;11.57;63.83
19508;BME280;40157;42.566;27.526;2023-05-02T03:56:16;101705.88;;;11.70;63.92
19508;BME280;40157;42.566;27.526;2023-05-02T03:58:19;101693.34;;;11.59;64.03
19508;BME280;40157;42.566;27.526;2023-05-02T04:00:20;101697.50;;;11.51;64.39
19508;BME280;40157;42.566;27.526;2023-05-02T04:02:20;101711.22;;;11.41;64.82
19508;BME280;40157;42.566;27.526;2023-05-02T04:04:21;101715.72;;;11.46;64.85
19508;BME280;40157;42.566;27.526;2023-05-02T04:06:21;101710.47;;;11.46;65.81
19508;BME280;40157;42.566;27.526;2023-05-02T04:08:22;101676.03;;;11.36;66.68
19508;BME280;40157;42.566;27.526;2023-05-02T04:10:22;101650.44;;;11.28;66.76
19508;BME280;40157;42.566;27.526;2023-05-02T04:12:23;101672.75;;;11.43;66.40
19508;BME280;40157;42.566;27.526;2023-05-02T04:14:23;101721.03;;;11.80;66.12
19508;BME280;40157;42.566;27.526;2023-05-02T04:16:24;101719.25;;;11.79;64.90
19508;BME280;40157;42.566;27.526;2023-05-02T04:18:24;101701.63;;;11.75;64.18
19508;BME280;40157;42.566;27.526;2023-05-02T04:20:26;101726.06;;;12.02;64.23
19508;BME280;40157;42.566;27.526;2023-05-02T04:22:26;101726.81;;;11.98;64.08
19508;BME280;40157;42.566;27.526;2023-05-02T04:24:27;101720.63;;;11.96;63.64
19508;BME280;40157;42.566;27.526;2023-05-02T04:26:27;101739.03;;;11.96;63.76
19508;BME280;40157;42.566;27.526;2023-05-02T04:28:27;101652.72;;;11.46;64.22
19508;BME280;40157;42.566;27.526;2023-05-02T04:30:28;101717.72;;;11.87;64.54
19508;BME280;40157;42.566;27.526;2023-05-02T04:32:28;101692.13;;;11.80;64.71
19508;BME280;40157;42.566;27.526;2023-05-02T04:34:29;101698.16;;;11.76;65.26
19508;BME280;40157;42.566;27.526;2023-05-02T04:36:29;101714.41;;;11.93;65.37
19508;BME280;40157;42.566;27.526;2023-05-02T04:38:30;101697.50;;;11.84;65.05
19508;BME280;40157;42.566;27.526;2023-05-02T04:40:32;101691.53;;;11.90;65.05
19508;BME280;40157;42.566;27.526;2023-05-02T04:42:32;101713.88;;;12.06;65.25
19508;BME280;40157;42.566;27.526;2023-05-02T04:44:33;101727.94;;;12.08;64.89
19508;BME280;40157;42.566;27.526;2023-05-02T04:46:33;101642.56;;;11.60;64.49
19508;BME280;40157;42.566;27.526;2023-05-02T04:48:34;101700.63;;;12.01;64.21
19508;BME280;40157;42.566;27.526;2023-05-02T04:50:34;101702.31;;;11.99;63.94
19508;BME280;40157;42.566;27.526;2023-05-02T04:52:35;101721.91;;;12.11;63.62
19508;BME280;40157;42.566;27.526;2023-05-02T04:54:35;101747.97;;;12.36;63.16
19508;BME280;40157;42.566;27.526;2023-05-02T04:56:36;101664.31;;;11.88;62.98
19508;BME280;40157;42.566;27.526;2023-05-02T04:58:36;101720.78;;;12.36;62.97
19508;BME280;40157;42.566;27.526;2023-05-02T05:00:37;101751.00;;;12.53;62.36
19508;BME280;40157;42.566;27.526;2023-05-02T05:02:37;101746.81;;;12.62;62.33
19508;BME280;40157;42.566;27.526;2023-05-02T05:04:38;101749.56;;;12.66;62.26
19508;BME280;40157;42.566;27.526;2023-05-02T05:06:39;101737.25;;;12.65;62.21
19508;BME280;40157;42.566;27.526;2023-05-02T05:08:39;101731.94;;;12.64;62.17
19508;BME280;40157;42.566;27.526;2023-05-02T05:10:40;101733.75;;;12.65;61.50
19508;BME280;40157;42.566;27.526;2023-05-02T05:12:40;101730.06;;;12.58;61.37
19508;BME280;40157;42.566;27.526;2023-05-02T05:14:41;101751.72;;;12.83;61.29
19508;BME280;40157;42.566;27.526;2023-05-02T05:16:41;101718.16;;;12.72;61.36
19508;BME280;40157;42.566;27.526;2023-05-02T05:18:42;101743.03;;;12.87;61.66
19508;BME280;40157;42.566;27.526;2023-05-02T05:20:42;101759.03;;;12.96;61.79
19508;BME280;40157;42.566;27.526;2023-05-02T05:22:43;101766.28;;;13.06;62.14
19508;BME280;40157;42.566;27.526;2023-05-02T05:24:50;101738.06;;;12.99;62.07
19508;BME280;40157;42.566;27.526;2023-05-02T05:26:51;101678.72;;;12.75;62.34
19508;BME280;40157;42.566;27.526;2023-05-02T05:28:51;101717.19;;;13.08;62.01
19508;BME280;40157;42.566;27.526;2023-05-02T05:30:52;101699.56;;;13.04;61.93
19508;BME280;40157;42.566;27.526;2023-05-02T05:32:53;101769.91;;;13.49;61.82
19508;BME280;40157;42.566;27.526;2023-05-02T05:34:54;101745.94;;;13.39;61.70
19508;BME280;40157;42.566;27.526;2023-05-02T05:36:54;101779.78;;;13.60;62.36
19508;BME280;40157;42.566;27.526;2023-05-02T05:38:55;101731.84;;;13.35;63.15
19508;BME280;40157;42.566;27.526;2023-05-02T05:40:55;101762.13;;;13.56;63.18
19508;BME280;40157;42.566;27.526;2023-05-02T05:42:56;101678.66;;;13.13;63.07
19508;BME280;40157;42.566;27.526;2023-05-02T05:44:56;101747.19;;;13.56;63.22
19508;BME280;40157;42.566;27.526;2023-05-02T05:46:57;101741.22;;;13.65;63.54
19508;BME280;40157;42.566;27.526;2023-05-02T05:48:57;101764.41;;;13.81;63.59
19508;BME280;40157;42.566;27.526;2023-05-02T05:51:02;101753.97;;;13.87;63.58
19508;BME280;40157;42.566;27.526;2023-05-02T05:53:03;101767.31;;;13.97;63.73
19508;BME280;40157;42.566;27.526;2023-05-02T05:55:04;101752.38;;;13.96;63.51
19508;BME280;40157;42.566;27.526;2023-05-02T05:57:04;101764.00;;;14.09;63.28
19508;BME280;40157;42.566;27.526;2023-05-02T05:59:05;101777.41;;;14.19;63.08
19508;BME280;40157;42.566;27.526;2023-05-02T06:01:06;101775.88;;;14.31;62.78
19508;BME280;40157;42.566;27.526;2023-05-02T06:03:07;101791.09;;;14.46;62.96
19508;BME280;40157;42.566;27.526;2023-05-02T06:05:07;101789.38;;;14.49;62.66
19508;BME280;40157;42.566;27.526;2023-05-02T06:07:08;101776.06;;;14.43;63.00
19508;BME280;40157;42.566;27.526;2023-05-02T06:09:08;101777.91;;;14.47;62.96
19508;BME280;40157;42.566;27.526;2023-05-02T06:11:09;101774.44;;;14.51;62.51
19508;BME280;40157;42.566;27.526;2023-05-02T06:13:12;101794.91;;;14.63;62.57
19508;BME280;40157;42.566;27.526;2023-05-02T06:15:12;101739.94;;;14.37;62.38
19508;BME280;40157;42.566;27.526;2023-05-02T06:17:13;101751.66;;;14.56;62.50
19508;BME280;40157;42.566;27.526;2023-05-02T06:19:13;101788.19;;;14.80;62.56
19508;BME280;40157;42.566;27.526;2023-05-02T06:21:14;101781.22;;;14.86;62.48
19508;BME280;40157;42.566;27.526;2023-05-02T06:23:14;101752.88;;;14.74;62.62
19508;BME280;40157;42.566;27.526;2023-05-02T06:25:15;101761.75;;;14.82;62.24
19508;BME280;40157;42.566;27.526;2023-05-02T06:27:15;101727.28;;;14.70;61.12
19508;BME280;40157;42.566;27.526;2023-05-02T06:29:16;101776.06;;;14.96;61.26
19508;BME280;40157;42.566;27.526;2023-05-02T06:31:16;101799.16;;;15.10;60.83
19508;BME280;40157;42.566;27.526;2023-05-02T06:33:17;101701.59;;;14.59;60.00
19508;BME280;40157;42.566;27.526;2023-05-02T06:35:17;101780.84;;;15.24;59.71
19508;BME280;40157;42.566;27.526;2023-05-02T06:37:18;101791.47;;;15.27;58.73
19508;BME280;40157;42.566;27.526;2023-05-02T06:39:18;101759.72;;;15.21;55.87
19508;BME280;40157;42.566;27.526;2023-05-02T06:41:19;101782.88;;;15.42;55.18
19508;BME280;40157;42.566;27.526;2023-05-02T06:43:19;101752.84;;;15.36;56.59
19508;BME280;40157;42.566;27.526;2023-05-02T06:45:20;101750.19;;;15.35;56.31
19508;BME280;40157;42.566;27.526;2023-05-02T06:47:21;101768.94;;;15.55;56.98
19508;BME280;40157;42.566;27.526;2023-05-02T06:49:24;101797.38;;;15.73;55.81
19508;BME280;40157;42.566;27.526;2023-05-02T06:51:25;101790.38;;;15.77;54.39
19508;BME280;40157;42.566;27.526;2023-05-02T06:53:26;101802.84;;;15.87;56.66
19508;BME280;40157;42.566;27.526;2023-05-02T06:55:27;101801.19;;;15.92;55.94
19508;BME280;40157;42.566;27.526;2023-05-02T06:57:27;101804.75;;;15.97;56.36
19508;BME280;40157;42.566;27.526;2023-05-02T06:59:28;101778.19;;;15.88;55.54
19508;BME280;40157;42.566;27.526;2023-05-02T07:01:28;101787.06;;;15.93;55.47
19508;BME280;40157;42.566;27.526;2023-05-02T07:03:29;101800.41;;;16.02;55.75
19508;BME280;40157;42.566;27.526;2023-05-02T07:05:29;101808.38;;;16.08;55.85
19508;BME280;40157;42.566;27.526;2023-05-02T07:07:30;101773.84;;;15.95;55.39
19508;BME280;40157;42.566;27.526;2023-05-02T07:09:31;101804.06;;;16.17;54.32
19508;BME280;40157;42.566;27.526;2023-05-02T07:11:32;101808.47;;;16.15;54.12
19508;BME280;40157;42.566;27.526;2023-05-02T07:13:32;101778.31;;;16.00;55.26
19508;BME280;40157;42.566;27.526;2023-05-02T07:15:33;101806.72;;;16.17;54.70
19508;BME280;40157;42.566;27.526;2023-05-02T07:17:34;101816.47;;;16.21;54.58
19508;BME280;40157;42.566;27.526;2023-05-02T07:19:34;101824.38;;;16.18;53.38
19508;BME280;40157;42.566;27.526;2023-05-02T07:21:35;101813.75;;;16.15;53.58
19508;BME280;40157;42.566;27.526;2023-05-02T07:23:35;101810.13;;;16.06;53.36
19508;BME280;40157;42.566;27.526;2023-05-02T07:25:35;101742.78;;;15.77;52.89
19508;BME280;40157;42.566;27.526;2023-05-02T07:27:36;101831.47;;;16.23;52.12
19508;BME280;40157;42.566;27.526;2023-05-02T07:29:37;101823.56;;;16.25;51.32
19508;BME280;40157;42.566;27.526;2023-05-02T07:31:38;101808.41;;;16.12;51.97
19508;BME280;40157;42.566;27.526;2023-05-02T07:33:38;101774.69;;;15.89;52.20
19508;BME280;40157;42.566;27.526;2023-05-02T07:35:39;101794.25;;;16.06;51.55
19508;BME280;40157;42.566;27.526;2023-05-02T07:37:39;101782.69;;;15.98;50.06
19508;BME280;40157;42.566;27.526;2023-05-02T07:39:40;101797.75;;;16.02;49.45
19508;BME280;40157;42.566;27.526;2023-05-02T07:41:41;101794.34;;;16.13;48.42
19508;BME280;40157;42.566;27.526;2023-05-02T07:43:41;101758.00;;;15.96;47.24
19508;BME280;40157;42.566;27.526;2023-05-02T07:45:41;101802.41;;;16.26;43.30
19508;BME280;40157;42.566;27.526;2023-05-02T07:47:42;101822.00;;;16.44;42.76
19508;BME280;40157;42.566;27.526;2023-05-02T07:49:42;101822.00;;;16.45;40.60
19508;BME280;40157;42.566;27.526;2023-05-02T07:51:43;101755.53;;;16.15;42.22
19508;BME280;40157;42.566;27.526;2023-05-02T07:53:44;101807.03;;;16.49;43.19
19508;BME280;40157;42.566;27.526;2023-05-02T07:55:45;101839.00;;;16.69;44.98
19508;BME280;40157;42.566;27.526;2023-05-02T07:57:46;101824.88;;;16.72;45.11
19508;BME280;40157;42.566;27.526;2023-05-02T07:59:46;101825.81;;;16.74;45.39
19508;BME280;40157;42.566;27.526;2023-05-02T08:01:47;101799.16;;;16.54;45.30
19508;BME280;40157;42.566;27.526;2023-05-02T08:03:47;101818.72;;;16.73;42.81
19508;BME280;40157;42.566;27.526;2023-05-02T08:05:48;101827.59;;;16.79;43.86
19508;BME280;40157;42.566;27.526;2023-05-02T08:07:49;101845.38;;;16.90;41.98
19508;BME280;40157;42.566;27.526;2023-05-02T08:09:49;101810.75;;;16.71;40.76
19508;BME280;40157;42.566;27.526;2023-05-02T08:11:50;101848.06;;;16.96;40.26
19508;BME280;40157;42.566;27.526;2023-05-02T08:13:51;101838.38;;;16.99;40.88
19508;BME280;40157;42.566;27.526;2023-05-02T08:15:51;101835.78;;;17.04;41.16
19508;BME280;40157;42.566;27.526;2023-05-02T08:17:56;101834.94;;;17.11;40.28
19508;BME280;40157;42.566;27.526;2023-05-02T08:19:57;101828.78;;;17.14;38.36
19508;BME280;40157;42.566;27.526;2023-05-02T08:21:58;101847.41;;;17.28;37.70
19508;BME280;40157;42.566;27.526;2023-05-02T08:23:59;101842.16;;;17.34;37.88
19508;BME280;40157;42.566;27.526;2023-05-02T08:25:59;101848.34;;;17.36;37.63
19508;BME280;40157;42.566;27.526;2023-05-02T08:28:00;101757.88;;;16.83;36.93
19508;BME280;40157;42.566;27.526;2023-05-02T08:30:00;101851.00;;;17.36;36.80
19508;BME280;40157;42.566;27.526;2023-05-02T08:32:01;101828.91;;;17.34;36.97
19508;BME280;40157;42.566;27.526;2023-05-02T08:34:01;101851.97;;;17.47;37.31
19508;BME280;40157;42.566;27.526;2023-05-02T08:36:09;101828.91;;;17.34;37.15
19508;BME280;40157;42.566;27.526;2023-05-02T08:38:10;101809.44;;;17.32;37.07
19508;BME280;40157;42.566;27.526;2023-05-02T08:40:11;101832.50;;;17.47;37.82
19508;BME280;40157;42.566;27.526;2023-05-02T08:42:11;101826.38;;;17.55;36.75
19508;BME280;40157;42.566;27.526;2023-05-02T08:44:12;101846.78;;;17.72;36.98
19508;BME280;40157;42.566;27.526;2023-05-02T08:46:14;101844.16;;;17.81;37.34
19508;BME280;40157;42.566;27.526;2023-05-02T08:48:15;101822.03;;;17.76;36.55
19508;BME280;40157;42.566;27.526;2023-05-02T08:50:17;101831.78;;;17.83;36.72
19508;BME280;40157;42.566;27.526;2023-05-02T08:52:19;101834.53;;;17.92;36.59
19508;BME280;40157;42.566;27.526;2023-05-02T08:54:19;101848.72;;;18.10;36.25
19508;BME280;40157;42.566;27.526;2023-05-02T08:56:20;101831.94;;;18.12;36.17
19508;BME280;40157;42.566;27.526;2023-05-02T08:58:21;101784.94;;;17.85;35.20
19508;BME280;40157;42.566;27.526;2023-05-02T09:00:21;101834.59;;;18.17;34.77
19508;BME280;40157;42.566;27.526;2023-05-02T09:04:41;101827.53;;;18.28;33.98
19508;BME280;40157;42.566;27.526;2023-05-02T09:06:42;101847.94;;;18.53;34.83
19508;BME280;40157;42.566;27.526;2023-05-02T09:08:44;101808.97;;;18.39;35.20
19508;BME280;40157;42.566;27.526;2023-05-02T09:10:45;101836.44;;;18.61;32.58
19508;BME280;40157;42.566;27.526;2023-05-02T09:12:45;101841.75;;;18.74;32.28
19508;BME280;40157;42.566;27.526;2023-05-02T09:14:46;101828.47;;;18.77;32.66
19508;BME280;40157;42.566;27.526;2023-05-02T09:16:46;101853.31;;;18.94;32.96
19508;BME280;40157;42.566;27.526;2023-05-02T09:18:55;101786.84;;;18.70;31.35
19508;BME280;40157;42.566;27.526;2023-05-02T09:20:59;101849.75;;;19.11;31.09
19508;BME280;40157;42.566;27.526;2023-05-02T09:23:00;101837.34;;;19.11;30.58
19508;BME280;40157;42.566;27.526;2023-05-02T09:25:00;101800.16;;;19.02;31.00
19508;BME280;40157;42.566;27.526;2023-05-02T09:27:03;101825.78;;;19.23;30.73
19508;BME280;40157;42.566;27.526;2023-05-02T09:29:03;101836.41;;;19.38;31.50
19508;BME280;40157;42.566;27.526;2023-05-02T09:31:06;101840.81;;;19.46;31.31
19508;BME280;40157;42.566;27.526;2023-05-02T09:33:07;101822.19;;;19.42;31.24
19508;BME280;40157;42.566;27.526;2023-05-02T09:35:08;101820.47;;;19.38;31.68
19508;BME280;40157;42.566;27.526;2023-05-02T09:37:09;101829.25;;;19.53;31.87
19508;BME280;40157;42.566;27.526;2023-05-02T09:39:12;101841.63;;;19.66;32.47
19508;BME280;40157;42.566;27.526;2023-05-02T09:41:13;101843.41;;;19.73;32.53
19508;BME280;40157;42.566;27.526;2023-05-02T09:43:14;101847.84;;;19.79;33.60
19508;BME280;40157;42.566;27.526;2023-05-02T09:45:23;101805.31;;;19.59;32.74
19508;BME280;40157;42.566;27.526;2023-05-02T09:47:24;101829.19;;;19.71;33.60
19508;BME280;40157;42.566;27.526;2023-05-02T09:51:38;101825.63;;;19.85;33.41
19508;BME280;40157;42.566;27.526;2023-05-02T09:53:42;101828.28;;;19.83;33.31
19508;BME280;40157;42.566;27.526;2023-05-02T09:55:43;101841.56;;;19.97;33.22
19508;BME280;40157;42.566;27.526;2023-05-02T09:57:43;101842.44;;;19.94;33.25
19508;BME280;40157;42.566;27.526;2023-05-02T09:59:57;101849.47;;;20.05;34.00
19508;BME280;40157;42.566;27.526;2023-05-02T10:02:00;101853.06;;;20.04;33.70
19508;BME280;40157;42.566;27.526;2023-05-02T10:04:02;101834.44;;;19.96;33.42
19508;BME280;40157;42.566;27.526;2023-05-02T10:06:03;101822.94;;;19.92;33.97
19508;BME280;40157;42.566;27.526;2023-05-02T10:08:07;101851.19;;;20.17;33.84
19508;BME280;40157;42.566;27.526;2023-05-02T10:10:12;101838.81;;;20.11;34.09
19508;BME280;40157;42.566;27.526;2023-05-02T10:12:14;101833.47;;;20.14;34.62
19508;BME280;40157;42.566;27.526;2023-05-02T10:14:18;101832.53;;;20.17;34.71
19508;BME280;40157;42.566;27.526;2023-05-02T10:16:26;101826.34;;;20.16;33.60
19508;BME280;40157;42.566;27.526;2023-05-02T10:18:36;101850.28;;;20.21;33.33
19508;BME280;40157;42.566;27.526;2023-05-02T10:20:46;101849.44;;;20.11;33.88
19508;BME280;40157;42.566;27.526;2023-05-02T10:22:49;101834.38;;;20.08;34.39
19508;BME280;40157;42.566;27.526;2023-05-02T10:24:51;101841.47;;;20.06;33.38
19508;BME280;40157;42.566;27.526;2023-05-02T10:26:52;101815.81;;;19.93;34.02
19508;BME280;40157;42.566;27.526;2023-05-02T10:28:54;101837.94;;;20.07;33.86
19508;BME280;40157;42.566;27.526;2023-05-02T10:30:57;101852.97;;;20.14;33.83
19508;BME280;40157;42.566;27.526;2023-05-02T10:32:59;101844.16;;;20.03;33.98
19508;BME280;40157;42.566;27.526;2023-05-02T10:35:04;101836.16;;;20.03;33.64
19508;BME280;40157;42.566;27.526;2023-05-02T10:37:05;101859.19;;;20.17;33.57
19508;BME280;40157;42.566;27.526;2023-05-02T10:39:05;101853.84;;;20.21;33.89
19508;BME280;40157;42.566;27.526;2023-05-02T10:41:26;101846.69;;;20.28;33.53
19508;BME280;40157;42.566;27.526;2023-05-02T10:43:31;101851.13;;;20.33;33.77
19508;BME280;40157;42.566;27.526;2023-05-02T10:45:35;101843.13;;;20.35;33.39
19508;BME280;40157;42.566;27.526;2023-05-02T10:47:36;101850.19;;;20.36;33.19
19508;BME280;40157;42.566;27.526;2023-05-02T10:49:48;101841.34;;;20.34;33.00
19508;BME280;40157;42.566;27.526;2023-05-02T10:51:50;101820.13;;;20.19;33.00
19508;BME280;40157;42.566;27.526;2023-05-02T10:53:50;101843.13;;;20.32;32.02
19508;BME280;40157;42.566;27.526;2023-05-02T10:58:19;101838.78;;;20.20;33.14